Time;durP1;ratioP1;P1;durP2;ratioP2;P2;SDS_P1;SDS_P2;PMS_P1;PMS_P2;Temp;Humidity;BMP_temperature;BMP_pressure;BME280_temperature;BME280_humidity;BME280_pressure;Samples;Min_cycle;Max_cycle;Signal;HPM_P1;HPM_P2
2022/03/30 00:00:44;;;;;;;13.48;7.13;;;;;;;;;;5008913;28;20070;-75
2022/03/30 00:03:10;;;;;;;13.45;7.00;;;;;;;;;;4993296;28;20046;-76
2022/03/30 00:05:35;;;;;;;18.60;7.45;;;;;;;;;;4993241;28;20045;-73
2022/03/30 00:08:00;;;;;;;17.13;7.65;;;;;;;;;;5008487;28;20038;-76
2022/03/30 00:10:26;;;;;;;27.40;10.88;;;;;;;;;;4993392;28;20038;-75
2022/03/30 00:12:51;;;;;;;15.02;7.13;;;;;;;;;;4993212;28;20030;-75
2022/03/30 00:15:17;;;;;;;19.17;8.10;;;;;;;;;;4992875;28;20058;-77
2022/03/30 00:17:42;;;;;;;16.20;8.40;;;;;;;;;;4996536;28;20510;-75
2022/03/30 00:20:08;;;;;;;15.65;7.25;;;;;;;;;;5008215;28;20124;-76
2022/03/30 00:22:33;;;;;;;20.23;7.90;;;;;;;;;;4993216;28;20050;-76
2022/03/30 00:24:59;;;;;;;14.07;8.63;;;;;;;;;;4992746;28;20023;-74
2022/03/30 00:27:24;;;;;;;15.65;7.57;;;;;;;;;;4992604;28;20038;-76
2022/03/30 00:29:49;;;;;;;17.70;7.75;;;;;;;;;;5009004;28;20037;-76
2022/03/30 00:32:15;;;;;;;16.95;7.80;;;;;;;;;;5012331;28;20490;-75
2022/03/30 00:34:40;;;;;;;16.55;8.25;;;;;;;;;;5012334;28;20459;-75
2022/03/30 00:37:08;;;;;;;16.45;7.60;;;;;;;;;;5012069;28;20034;-77
2022/03/30 00:39:34;;;;;;;12.48;6.55;;;;;;;;;;5012015;28;20022;-75
2022/03/30 00:42:00;;;;;;;19.27;7.85;;;;;;;;;;5009128;28;20499;-76
2022/03/30 00:44:25;;;;;;;17.85;7.70;;;;;;;;;;4991930;28;20025;-76
2022/03/30 00:46:51;;;;;;;14.13;6.60;;;;;;;;;;4992635;28;20506;-75
2022/03/30 00:49:16;;;;;;;15.10;6.72;;;;;;;;;;4991453;28;20030;-74
2022/03/30 00:51:41;;;;;;;19.65;7.82;;;;;;;;;;4991827;28;20022;-74
2022/03/30 00:54:07;;;;;;;18.38;7.50;;;;;;;;;;4992504;28;20030;-75
2022/03/30 00:56:33;;;;;;;18.90;7.88;;;;;;;;;;4991306;28;20041;-74
2022/03/30 00:59:00;;;;;;;18.85;6.95;;;;;;;;;;4992555;28;20026;-75
2022/03/30 01:01:25;;;;;;;20.88;7.75;;;;;;;;;;4992853;28;20121;-76
2022/03/30 01:03:51;;;;;;;16.30;6.95;;;;;;;;;;4990868;28;20535;-77
2022/03/30 01:06:16;;;;;;;19.77;6.82;;;;;;;;;;4990899;28;20049;-76
2022/03/30 01:08:42;;;;;;;15.07;7.10;;;;;;;;;;4992186;28;20471;-76
2022/03/30 01:11:09;;;;;;;16.80;7.07;;;;;;;;;;4991309;28;20054;-74
2022/03/30 01:13:35;;;;;;;16.23;7.03;;;;;;;;;;4995975;28;20022;-76
2022/03/30 01:16:02;;;;;;;18.30;7.65;;;;;;;;;;4992128;28;20041;-74
2022/03/30 01:18:27;;;;;;;15.98;6.93;;;;;;;;;;4992389;28;20022;-76
2022/03/30 01:20:52;;;;;;;15.55;7.10;;;;;;;;;;4992131;28;20432;-73
2022/03/30 01:23:17;;;;;;;16.48;7.53;;;;;;;;;;4992980;28;20031;-76
2022/03/30 01:25:43;;;;;;;21.55;7.82;;;;;;;;;;4995369;28;20538;-77
2022/03/30 01:28:08;;;;;;;16.50;7.38;;;;;;;;;;5000157;28;20077;-81
2022/03/30 01:33:17;;;;;;;16.40;7.70;;;;;;;;;;4996835;28;20018;-77
2022/03/30 01:35:43;;;;;;;21.15;8.13;;;;;;;;;;4993207;28;20023;-75
2022/03/30 01:38:09;;;;;;;21.35;8.65;;;;;;;;;;4991690;28;20392;-79
2022/03/30 01:40:34;;;;;;;18.85;11.05;;;;;;;;;;4991265;28;20468;-76
2022/03/30 01:43:00;;;;;;;23.48;9.73;;;;;;;;;;4991631;28;20029;-76
2022/03/30 01:45:25;;;;;;;20.02;9.82;;;;;;;;;;4991423;28;20022;-76
2022/03/30 01:47:55;;;;;;;16.25;8.75;;;;;;;;;;4991849;28;20027;-77
2022/03/30 01:50:21;;;;;;;14.57;7.07;;;;;;;;;;4990158;28;20054;-75
2022/03/30 01:52:46;;;;;;;14.90;7.47;;;;;;;;;;4991527;28;20053;-76
2022/03/30 01:55:12;;;;;;;16.60;7.10;;;;;;;;;;4991642;28;20464;-76
2022/03/30 01:57:37;;;;;;;16.58;7.22;;;;;;;;;;4993382;28;20714;-75
2022/03/30 02:00:04;;;;;;;14.52;7.60;;;;;;;;;;4997383;28;20042;-78
2022/03/30 02:02:30;;;;;;;16.38;7.45;;;;;;;;;;4995392;28;20026;-77
2022/03/30 02:04:55;;;;;;;19.15;8.20;;;;;;;;;;4990314;28;20030;-76
2022/03/30 02:07:20;;;;;;;19.00;7.95;;;;;;;;;;4994928;28;20011;-75
2022/03/30 02:09:46;;;;;;;18.77;8.18;;;;;;;;;;4991913;28;20543;-75
2022/03/30 02:12:11;;;;;;;18.10;7.53;;;;;;;;;;4991606;28;20022;-76
2022/03/30 02:14:36;;;;;;;16.85;7.22;;;;;;;;;;4991118;28;20121;-75
2022/03/30 02:17:02;;;;;;;18.48;8.15;;;;;;;;;;4991303;28;20038;-78
2022/03/30 02:19:27;;;;;;;13.63;6.78;;;;;;;;;;4989838;28;20022;-76
2022/03/30 02:21:52;;;;;;;27.50;8.23;;;;;;;;;;4989969;28;20034;-76
2022/03/30 02:24:18;;;;;;;17.13;7.43;;;;;;;;;;4991152;28;20155;-76
2022/03/30 02:26:43;;;;;;;19.77;7.85;;;;;;;;;;4991490;28;20030;-76
2022/03/30 02:29:08;;;;;;;22.05;7.68;;;;;;;;;;4991307;28;20025;-76
2022/03/30 02:31:34;;;;;;;19.02;8.35;;;;;;;;;;4991859;28;20026;-76
2022/03/30 02:34:00;;;;;;;14.70;7.60;;;;;;;;;;4991520;28;20018;-74
2022/03/30 02:36:25;;;;;;;18.40;7.05;;;;;;;;;;4989928;28;20034;-76
2022/03/30 02:38:50;;;;;;;17.60;7.93;;;;;;;;;;4991371;28;20027;-76
2022/03/30 02:41:15;;;;;;;14.82;7.28;;;;;;;;;;4991102;28;20271;-76
2022/03/30 02:43:40;;;;;;;16.92;7.50;;;;;;;;;;4991134;28;20029;-78
2022/03/30 02:46:06;;;;;;;23.98;9.32;;;;;;;;;;4991156;28;20476;-77
2022/03/30 02:48:33;;;;;;;18.45;7.47;;;;;;;;;;4991052;28;20018;-76
2022/03/30 02:51:03;;;;;;;22.45;8.07;;;;;;;;;;4991276;28;20034;-74
2022/03/30 02:53:32;;;;;;;17.23;7.93;;;;;;;;;;4994959;28;20019;-76
2022/03/30 02:55:57;;;;;;;20.48;7.50;;;;;;;;;;4994911;28;20041;-75
2022/03/30 02:58:23;;;;;;;20.25;7.75;;;;;;;;;;4994821;28;20026;-76
2022/03/30 03:00:48;;;;;;;19.52;7.68;;;;;;;;;;4995203;28;20054;-76
2022/03/30 03:03:14;;;;;;;19.38;7.97;;;;;;;;;;4997557;28;20018;-74
2022/03/30 03:05:41;;;;;;;23.38;8.25;;;;;;;;;;4995171;28;20030;-75
2022/03/30 03:08:07;;;;;;;14.98;7.63;;;;;;;;;;4995168;28;20029;-76
2022/03/30 03:10:34;;;;;;;17.60;7.90;;;;;;;;;;4995538;28;20023;-76
2022/03/30 03:12:59;;;;;;;21.38;8.10;;;;;;;;;;4994044;28;20030;-75
2022/03/30 03:15:24;;;;;;;14.85;7.40;;;;;;;;;;4995048;28;20051;-76
2022/03/30 03:17:50;;;;;;;17.95;8.32;;;;;;;;;;4994702;28;20468;-76
2022/03/30 03:20:16;;;;;;;17.80;7.80;;;;;;;;;;4994507;28;20026;-75
2022/03/30 03:22:42;;;;;;;15.93;8.52;;;;;;;;;;4993050;28;20061;-74
2022/03/30 03:25:08;;;;;;;19.98;9.02;;;;;;;;;;4994565;28;20133;-76
2022/03/30 03:27:33;;;;;;;20.23;8.43;;;;;;;;;;4992971;28;20556;-74
2022/03/30 03:29:59;;;;;;;13.85;8.25;;;;;;;;;;4994544;28;20105;-74
2022/03/30 03:32:24;;;;;;;18.83;8.32;;;;;;;;;;4994650;28;20499;-76
2022/03/30 03:34:50;;;;;;;25.27;7.93;;;;;;;;;;4994245;28;20527;-77
2022/03/30 03:37:18;;;;;;;14.45;7.82;;;;;;;;;;4993992;28;20105;-76
2022/03/30 03:39:44;;;;;;;15.68;8.32;;;;;;;;;;4993962;28;20018;-73
2022/03/30 03:42:09;;;;;;;14.88;7.80;;;;;;;;;;4995928;28;20072;-75
2022/03/30 03:44:34;;;;;;;20.10;8.88;;;;;;;;;;5013750;28;20525;-77
2022/03/30 03:47:00;;;;;;;17.45;8.57;;;;;;;;;;5012275;28;20014;-75
2022/03/30 03:49:25;;;;;;;15.02;8.18;;;;;;;;;;5013291;28;20037;-76
2022/03/30 03:51:50;;;;;;;19.33;8.68;;;;;;;;;;5012350;28;20030;-74
2022/03/30 03:54:16;;;;;;;13.15;8.15;;;;;;;;;;5013282;28;20033;-75
2022/03/30 03:56:41;;;;;;;20.80;8.88;;;;;;;;;;5015785;28;20108;-77
2022/03/30 03:59:07;;;;;;;15.82;9.05;;;;;;;;;;5013971;28;20120;-77
2022/03/30 04:01:33;;;;;;;16.30;9.25;;;;;;;;;;5013622;28;20087;-76
2022/03/30 04:03:58;;;;;;;16.65;8.57;;;;;;;;;;5004931;28;20026;-74
2022/03/30 04:06:23;;;;;;;24.05;8.55;;;;;;;;;;5006778;28;20117;-74
2022/03/30 04:08:49;;;;;;;21.75;9.02;;;;;;;;;;5013152;28;20026;-79
2022/03/30 04:11:14;;;;;;;20.30;8.60;;;;;;;;;;4997681;28;20031;-78
2022/03/30 04:13:40;;;;;;;18.73;8.52;;;;;;;;;;4995993;28;20392;-76
2022/03/30 04:16:05;;;;;;;15.13;9.43;;;;;;;;;;4993427;28;20030;-74
2022/03/30 04:18:30;;;;;;;25.60;9.18;;;;;;;;;;4993442;28;20724;-76
2022/03/30 04:20:56;;;;;;;17.92;8.90;;;;;;;;;;4993077;28;20054;-75
2022/03/30 04:23:21;;;;;;;22.52;9.60;;;;;;;;;;5012318;28;20120;-73
2022/03/30 04:25:46;;;;;;;17.10;9.37;;;;;;;;;;5013030;28;20097;-75
2022/03/30 04:28:14;;;;;;;17.42;8.65;;;;;;;;;;5013160;28;20399;-74
2022/03/30 04:30:39;;;;;;;24.42;9.55;;;;;;;;;;5012823;28;20065;-76
2022/03/30 04:33:05;;;;;;;19.33;9.05;;;;;;;;;;5011202;28;20557;-75
2022/03/30 04:35:30;;;;;;;23.77;10.52;;;;;;;;;;5012683;28;20040;-74
2022/03/30 04:37:56;;;;;;;20.60;9.27;;;;;;;;;;5012217;28;20129;-77
2022/03/30 04:40:22;;;;;;;18.48;9.00;;;;;;;;;;5012406;28;20467;-75
2022/03/30 04:42:47;;;;;;;19.13;9.80;;;;;;;;;;5010971;28;20026;-76
2022/03/30 04:45:12;;;;;;;48.63;11.50;;;;;;;;;;5011153;28;20080;-75
2022/03/30 04:47:38;;;;;;;62.80;11.20;;;;;;;;;;5010861;28;20022;-74
2022/03/30 04:50:04;;;;;;;37.05;11.05;;;;;;;;;;5012650;28;20531;-79
2022/03/30 04:52:31;;;;;;;30.45;10.13;;;;;;;;;;5017867;28;20049;-77
2022/03/30 04:54:57;;;;;;;20.52;9.95;;;;;;;;;;5010733;28;20029;-75
2022/03/30 04:57:22;;;;;;;19.00;10.13;;;;;;;;;;5011721;28;20041;-76
2022/03/30 04:59:47;;;;;;;25.13;11.43;;;;;;;;;;4993043;28;20142;-76
2022/03/30 05:02:13;;;;;;;25.23;8.82;;;;;;;;;;4995278;28;20031;-76
2022/03/30 05:04:38;;;;;;;19.33;11.13;;;;;;;;;;5011794;28;20087;-77
2022/03/30 05:07:03;;;;;;;18.65;9.48;;;;;;;;;;5011888;28;20021;-75
2022/03/30 05:09:28;;;;;;;25.08;9.43;;;;;;;;;;5010413;28;20017;-76
2022/03/30 05:11:54;;;;;;;16.15;9.98;;;;;;;;;;5011813;28;20029;-75
2022/03/30 05:14:19;;;;;;;19.38;9.80;;;;;;;;;;5010404;28;20634;-75
2022/03/30 05:16:44;;;;;;;16.63;10.38;;;;;;;;;;5013135;28;20037;-77
2022/03/30 05:19:10;;;;;;;19.50;10.00;;;;;;;;;;5014261;28;20022;-76
2022/03/30 05:21:35;;;;;;;19.98;9.52;;;;;;;;;;5011631;28;20395;-76
2022/03/30 05:24:01;;;;;;;18.80;8.65;;;;;;;;;;5011468;28;20006;-76
2022/03/30 05:26:28;;;;;;;19.92;10.38;;;;;;;;;;5012130;28;20049;-75
2022/03/30 05:28:53;;;;;;;25.67;10.43;;;;;;;;;;5012539;28;20018;-67
2022/03/30 05:31:19;;;;;;;20.33;10.20;;;;;;;;;;5011201;28;20018;-67
2022/03/30 05:33:44;;;;;;;25.35;10.43;;;;;;;;;;5011071;28;20021;-69
2022/03/30 05:36:09;;;;;;;24.42;11.30;;;;;;;;;;5011708;28;20060;-70
2022/03/30 05:38:35;;;;;;;19.98;11.20;;;;;;;;;;5011126;28;20088;-75
2022/03/30 05:41:02;;;;;;;31.25;12.68;;;;;;;;;;5009965;28;20017;-74
2022/03/30 05:43:27;;;;;;;36.97;13.38;;;;;;;;;;5011179;28;20511;-75
2022/03/30 05:45:52;;;;;;;43.80;14.85;;;;;;;;;;5011570;28;20068;-74
2022/03/30 05:48:17;;;;;;;29.63;12.25;;;;;;;;;;5014962;28;20010;-75
2022/03/30 05:50:43;;;;;;;30.65;13.52;;;;;;;;;;4993703;28;20403;-77
2022/03/30 05:53:08;;;;;;;29.08;14.23;;;;;;;;;;5009737;28;20493;-74
2022/03/30 05:55:34;;;;;;;32.63;14.15;;;;;;;;;;5011234;28;20034;-75
2022/03/30 05:57:59;;;;;;;34.20;16.10;;;;;;;;;;5011020;28;20021;-76
2022/03/30 06:00:24;;;;;;;33.95;15.05;;;;;;;;;;5010892;28;20022;-75
2022/03/30 06:02:50;;;;;;;33.60;14.93;;;;;;;;;;5011258;28;20014;-75
2022/03/30 06:05:15;;;;;;;37.70;16.45;;;;;;;;;;5010043;28;20029;-75
2022/03/30 06:07:40;;;;;;;32.13;14.70;;;;;;;;;;5011040;28;20152;-76
2022/03/30 06:10:06;;;;;;;31.83;15.60;;;;;;;;;;5011236;28;20026;-75
2022/03/30 06:12:31;;;;;;;29.48;16.52;;;;;;;;;;5011271;28;20048;-74
2022/03/30 06:14:56;;;;;;;30.00;14.85;;;;;;;;;;5011566;28;20085;-77
2022/03/30 06:17:22;;;;;;;35.55;15.60;;;;;;;;;;5018392;28;20064;-77
2022/03/30 06:19:50;;;;;;;26.27;15.00;;;;;;;;;;5017801;28;20026;-79
2022/03/30 06:22:16;;;;;;;30.45;15.15;;;;;;;;;;5021024;28;20544;-77
2022/03/30 06:24:42;;;;;;;29.58;14.98;;;;;;;;;;5017477;28;20057;-77
2022/03/30 06:27:09;;;;;;;32.80;15.07;;;;;;;;;;5012899;28;20049;-75
2022/03/30 06:29:35;;;;;;;28.65;15.38;;;;;;;;;;5013664;28;20022;-75
2022/03/30 06:32:00;;;;;;;29.42;15.30;;;;;;;;;;5013907;28;20079;-78
2022/03/30 06:34:25;;;;;;;28.27;14.82;;;;;;;;;;5014657;28;20017;-76
2022/03/30 06:36:50;;;;;;;26.63;14.90;;;;;;;;;;5013657;28;20034;-79
2022/03/30 06:39:16;;;;;;;28.40;14.50;;;;;;;;;;5013469;28;20049;-77
2022/03/30 06:41:42;;;;;;;30.33;13.30;;;;;;;;;;5017123;28;20026;-79
2022/03/30 06:44:08;;;;;;;30.85;16.10;;;;;;;;;;5016716;28;20017;-76
2022/03/30 06:46:37;;;;;;;34.08;13.88;;;;;;;;;;5014962;28;20044;-76
2022/03/30 06:49:03;;;;;;;29.20;13.18;;;;;;;;;;5014811;28;20018;-79
2022/03/30 06:51:28;;;;;;;35.90;20.27;;;;;;;;;;5014836;28;20028;-78
2022/03/30 06:53:53;;;;;;;33.15;17.40;;;;;;;;;;5015577;28;20022;-77
2022/03/30 06:56:19;;;;;;;30.40;16.25;;;;;;;;;;5013230;28;20394;-78
2022/03/30 06:58:44;;;;;;;33.13;15.93;;;;;;;;;;5004428;28;20014;-80
2022/03/30 07:01:12;;;;;;;37.45;19.20;;;;;;;;;;4995572;28;20392;-79
2022/03/30 07:03:38;;;;;;;39.65;19.88;;;;;;;;;;4994654;28;20029;-77
2022/03/30 07:06:03;;;;;;;36.22;21.92;;;;;;;;;;4994728;28;20026;-76
2022/03/30 07:11:12;;;;;;;38.13;18.77;;;;;;;;;;4994561;28;20435;-77
2022/03/30 07:13:38;;;;;;;37.33;19.55;;;;;;;;;;4994375;28;20002;-78
2022/03/30 07:16:04;;;;;;;35.40;17.02;;;;;;;;;;4994493;28;20038;-75
2022/03/30 07:18:30;;;;;;;35.45;17.27;;;;;;;;;;4994663;28;20026;-75
2022/03/30 07:20:55;;;;;;;27.23;15.70;;;;;;;;;;4994333;28;20026;-75
2022/03/30 07:23:23;;;;;;;31.77;15.85;;;;;;;;;;5009247;28;20468;-76
2022/03/30 07:25:48;;;;;;;31.48;16.13;;;;;;;;;;4993724;28;20022;-76
2022/03/30 07:28:16;;;;;;;30.08;16.42;;;;;;;;;;4993994;28;20037;-76
2022/03/30 07:30:43;;;;;;;41.05;18.08;;;;;;;;;;4994115;28;20026;-76
2022/03/30 07:33:08;;;;;;;34.58;18.42;;;;;;;;;;4994415;28;20532;-76
2022/03/30 07:35:33;;;;;;;32.80;18.15;;;;;;;;;;4992948;28;20117;-76
2022/03/30 07:38:00;;;;;;;36.80;20.10;;;;;;;;;;4997212;28;20106;-75
2022/03/30 07:40:25;;;;;;;40.83;21.02;;;;;;;;;;4993691;28;20157;-75
2022/03/30 07:42:51;;;;;;;46.95;21.05;;;;;;;;;;5005084;28;20112;-75
2022/03/30 07:45:17;;;;;;;41.58;21.15;;;;;;;;;;4997377;28;20173;-75
2022/03/30 07:47:42;;;;;;;38.20;20.60;;;;;;;;;;5005006;28;20562;-76
2022/03/30 07:50:08;;;;;;;32.58;17.40;;;;;;;;;;5013567;28;20034;-78
2022/03/30 07:52:33;;;;;;;30.23;17.98;;;;;;;;;;5013282;28;20041;-77
2022/03/30 07:54:58;;;;;;;30.63;17.05;;;;;;;;;;5011281;28;20112;-78
2022/03/30 07:57:26;;;;;;;35.53;19.25;;;;;;;;;;5012828;28;20100;-75
2022/03/30 07:59:55;;;;;;;31.65;18.67;;;;;;;;;;5013035;28;20025;-76
2022/03/30 08:02:21;;;;;;;39.50;20.30;;;;;;;;;;4997885;28;20029;-75
2022/03/30 08:04:46;;;;;;;37.63;20.10;;;;;;;;;;4993076;28;20113;-75
2022/03/30 08:07:12;;;;;;;34.42;20.17;;;;;;;;;;4992529;28;20057;-75
2022/03/30 08:09:37;;;;;;;36.65;22.00;;;;;;;;;;4992289;28;20504;-76
2022/03/30 08:12:03;;;;;;;39.70;21.23;;;;;;;;;;5007996;28;20034;-77
2022/03/30 08:14:28;;;;;;;36.90;20.42;;;;;;;;;;4991180;28;20500;-77
2022/03/30 08:16:53;;;;;;;38.65;18.45;;;;;;;;;;5007520;28;20045;-75
2022/03/30 08:19:19;;;;;;;35.95;19.75;;;;;;;;;;5021150;28;20056;-76
2022/03/30 08:24:28;;;;;;;38.70;20.95;;;;;;;;;;5013723;28;20079;-78
2022/03/30 08:26:53;;;;;;;39.30;20.50;;;;;;;;;;5015411;28;20013;-76
2022/03/30 08:29:18;;;;;;;37.17;20.60;;;;;;;;;;5017032;28;20039;-77
2022/03/30 08:31:44;;;;;;;38.20;20.58;;;;;;;;;;5022485;28;20109;-77
2022/03/30 08:34:13;;;;;;;32.65;20.58;;;;;;;;;;5014816;28;20018;-77
2022/03/30 08:36:38;;;;;;;37.05;22.25;;;;;;;;;;5024456;28;20550;-76
2022/03/30 08:39:10;;;;;;;36.60;19.10;;;;;;;;;;5024100;28;20025;-74
2022/03/30 08:41:36;;;;;;;32.63;19.90;;;;;;;;;;5019659;28;20282;-75
2022/03/30 08:44:04;;;;;;;41.85;21.38;;;;;;;;;;5019923;28;20052;-79
2022/03/30 08:46:34;;;;;;;37.25;21.35;;;;;;;;;;5021532;28;20018;-78
2022/03/30 08:48:59;;;;;;;41.95;20.90;;;;;;;;;;5017009;28;20017;-76
2022/03/30 08:51:24;;;;;;;38.10;20.75;;;;;;;;;;5010841;28;20434;-75
2022/03/30 08:53:50;;;;;;;36.10;19.80;;;;;;;;;;5014276;28;20574;-78
2022/03/30 08:56:15;;;;;;;33.47;19.90;;;;;;;;;;5021665;28;20022;-74
2022/03/30 08:58:40;;;;;;;34.80;19.13;;;;;;;;;;5014793;28;20463;-75
2022/03/30 09:01:06;;;;;;;36.65;19.95;;;;;;;;;;5011729;28;20555;-77
2022/03/30 09:03:42;;;;;;;;;;;;;;;;;;;;;
2022/03/30 09:06:15;;;;;;;30.75;18.55;;;;;;;;;;5015676;28;20039;-74
2022/03/30 09:08:43;;;;;;;30.45;18.67;;;;;;;;;;5019841;28;20555;-76
2022/03/30 09:11:08;;;;;;;37.33;17.48;;;;;;;;;;5018386;28;20018;-75
2022/03/30 09:13:34;;;;;;;35.00;17.63;;;;;;;;;;5019195;28;20084;-77
2022/03/30 09:16:07;;;;;;;35.22;18.88;;;;;;;;;;5020727;28;20692;-76
2022/03/30 09:18:32;;;;;;;33.67;18.15;;;;;;;;;;5013765;28;20026;-76
2022/03/30 09:20:59;;;;;;;31.10;17.17;;;;;;;;;;5011278;28;20018;-72
2022/03/30 09:23:25;;;;;;;26.52;16.90;;;;;;;;;;5017744;28;20032;-70
2022/03/30 09:25:51;;;;;;;36.05;17.58;;;;;;;;;;5019463;28;20414;-70
2022/03/30 09:28:21;;;;;;;36.83;16.73;;;;;;;;;;5021444;28;20021;-69
2022/03/30 09:30:49;;;;;;;30.65;17.30;;;;;;;;;;5020308;28;20263;-70
2022/03/30 09:33:18;;;;;;;35.15;17.45;;;;;;;;;;5019154;28;20014;-69
2022/03/30 09:35:44;;;;;;;34.17;18.92;;;;;;;;;;5020853;28;20080;-75
2022/03/30 09:38:13;;;;;;;29.65;16.42;;;;;;;;;;5022301;28;20017;-75
2022/03/30 09:40:47;;;;;;;36.35;18.92;;;;;;;;;;5020274;28;20025;-76
2022/03/30 09:43:12;;;;;;;29.08;17.35;;;;;;;;;;5015143;28;20030;-76
2022/03/30 09:45:38;;;;;;;31.77;18.03;;;;;;;;;;5021111;28;20172;-74
2022/03/30 09:48:10;;;;;;;32.10;18.52;;;;;;;;;;5014104;28;20732;-73
2022/03/30 09:50:40;;;;;;;34.47;19.48;;;;;;;;;;5019046;28;20026;-77
2022/03/30 09:53:10;;;;;;;35.47;18.75;;;;;;;;;;5020267;28;20106;-75
2022/03/30 09:55:35;;;;;;;42.03;23.38;;;;;;;;;;5018497;28;20069;-75
2022/03/30 09:58:07;;;;;;;37.20;20.92;;;;;;;;;;5020418;28;20143;-76
2022/03/30 10:00:32;;;;;;;35.92;20.40;;;;;;;;;;5010810;28;20065;-77
2022/03/30 10:02:57;;;;;;;37.03;23.80;;;;;;;;;;5012996;28;20021;-78
2022/03/30 10:05:23;;;;;;;36.10;22.13;;;;;;;;;;5017440;28;20009;-77
2022/03/30 10:07:48;;;;;;;40.28;19.83;;;;;;;;;;5017059;28;20393;-74
2022/03/30 10:10:17;;;;;;;39.30;20.45;;;;;;;;;;5019903;28;20032;-75
2022/03/30 10:12:43;;;;;;;44.92;20.98;;;;;;;;;;5020479;28;20046;-75
2022/03/30 10:15:09;;;;;;;36.63;20.85;;;;;;;;;;5019403;28;20209;-75
2022/03/30 10:17:37;;;;;;;36.42;20.35;;;;;;;;;;5019571;28;20558;-76
2022/03/30 10:20:04;;;;;;;46.15;20.52;;;;;;;;;;5018967;28;20061;-74
2022/03/30 10:22:32;;;;;;;35.83;21.00;;;;;;;;;;5013814;28;20483;-75
2022/03/30 10:25:04;;;;;;;33.30;20.30;;;;;;;;;;5011940;28;20025;-75
2022/03/30 10:27:36;;;;;;;41.15;22.50;;;;;;;;;;5010284;28;20006;-74
2022/03/30 10:30:04;;;;;;;45.72;21.88;;;;;;;;;;5011293;28;20092;-76
2022/03/30 10:32:33;;;;;;;44.65;21.95;;;;;;;;;;4998375;28;20483;-76
2022/03/30 10:35:08;;;;;;;50.38;22.20;;;;;;;;;;5010262;28;20105;-76
2022/03/30 10:37:36;;;;;;;48.67;21.00;;;;;;;;;;4998985;28;20038;-75
2022/03/30 10:40:03;;;;;;;35.55;19.38;;;;;;;;;;5006499;28;20073;-74
2022/03/30 10:42:50;;;;;;;40.58;20.35;;;;;;;;;;4990890;28;20049;-75
2022/03/30 10:45:28;;;;;;;38.85;20.75;;;;;;;;;;4990688;28;20368;-75
2022/03/30 10:48:05;;;;;;;40.33;21.65;;;;;;;;;;4993982;28;20062;-75
2022/03/30 10:50:34;;;;;;;43.85;21.42;;;;;;;;;;5013770;28;20077;-79
2022/03/30 10:52:59;;;;;;;40.40;20.90;;;;;;;;;;5009367;28;20022;-75
2022/03/30 10:55:24;;;;;;;39.08;20.10;;;;;;;;;;5009005;28;20045;-76
2022/03/30 10:57:50;;;;;;;37.83;20.25;;;;;;;;;;5010019;28;20029;-75
2022/03/30 11:00:36;;;;;;;36.00;19.20;;;;;;;;;;5008931;28;20072;-75
2022/03/30 11:03:08;;;;;;;33.88;19.63;;;;;;;;;;5010314;28;20553;-75
2022/03/30 11:05:35;;;;;;;38.42;20.40;;;;;;;;;;5009132;28;20125;-76
2022/03/30 11:08:02;;;;;;;36.33;20.10;;;;;;;;;;5010045;28;20057;-76
2022/03/30 11:10:42;;;;;;;30.60;17.95;;;;;;;;;;5010151;28;20033;-75
2022/03/30 11:13:12;;;;;;;33.78;17.52;;;;;;;;;;5010515;28;20494;-77
2022/03/30 11:15:56;;;;;;;35.85;18.73;;;;;;;;;;5027106;28;20073;-75
2022/03/30 11:18:21;;;;;;;28.05;17.15;;;;;;;;;;5027276;28;20026;-76
2022/03/30 11:21:06;;;;;;;32.63;17.60;;;;;;;;;;5028395;28;20021;-77
2022/03/30 11:23:31;;;;;;;32.47;18.02;;;;;;;;;;5026787;28;20041;-78
2022/03/30 11:25:56;;;;;;;32.47;17.30;;;;;;;;;;5019326;28;20025;-76
2022/03/30 11:28:34;;;;;;;35.88;18.20;;;;;;;;;;5013551;28;20014;-75
2022/03/30 11:31:03;;;;;;;30.27;16.42;;;;;;;;;;5013628;28;20415;-75
2022/03/30 11:33:32;;;;;;;31.42;17.35;;;;;;;;;;5014220;28;20021;-76
2022/03/30 11:35:57;;;;;;;41.50;18.88;;;;;;;;;;5012259;28;20030;-75
2022/03/30 11:38:26;;;;;;;39.60;17.35;;;;;;;;;;5012610;28;20096;-73
2022/03/30 11:40:56;;;;;;;41.65;17.73;;;;;;;;;;5013803;28;20018;-76
2022/03/30 11:43:23;;;;;;;41.28;17.10;;;;;;;;;;5012131;28;20391;-76
2022/03/30 11:45:50;;;;;;;31.45;16.35;;;;;;;;;;5013597;28;20025;-74
2022/03/30 11:48:16;;;;;;;32.75;16.35;;;;;;;;;;5013719;28;20084;-75
2022/03/30 11:50:46;;;;;;;30.15;16.17;;;;;;;;;;5011992;28;20022;-76
2022/03/30 11:53:14;;;;;;;31.27;15.60;;;;;;;;;;5011867;28;20018;-75
2022/03/30 11:55:50;;;;;;;28.50;14.82;;;;;;;;;;5014170;28;20030;-74
2022/03/30 11:58:29;;;;;;;24.58;12.93;;;;;;;;;;5012106;28;20033;-74
2022/03/30 12:00:59;;;;;;;21.40;10.07;;;;;;;;;;5012822;28;20124;-74
2022/03/30 12:03:25;;;;;;;27.50;8.48;;;;;;;;;;5013420;28;20093;-75
2022/03/30 12:05:55;;;;;;;23.58;7.53;;;;;;;;;;5011619;28;20076;-73
2022/03/30 12:08:21;;;;;;;18.02;7.07;;;;;;;;;;5012790;28;20026;-74
2022/03/30 12:10:48;;;;;;;20.45;7.72;;;;;;;;;;5011904;28;20121;-75
2022/03/30 12:13:19;;;;;;;19.05;7.95;;;;;;;;;;5015150;28;20071;-74
2022/03/30 12:15:44;;;;;;;25.77;8.18;;;;;;;;;;5010948;28;20069;-75
2022/03/30 12:18:12;;;;;;;19.00;9.43;;;;;;;;;;5011397;28;20056;-73
2022/03/30 12:20:37;;;;;;;22.85;8.02;;;;;;;;;;5012427;28;20251;-74
2022/03/30 12:23:04;;;;;;;20.90;8.85;;;;;;;;;;5011354;28;20487;-73
2022/03/30 12:25:30;;;;;;;24.17;10.10;;;;;;;;;;5012235;28;20104;-75
2022/03/30 12:27:56;;;;;;;26.05;8.95;;;;;;;;;;5011510;28;20469;-77
2022/03/30 12:30:21;;;;;;;23.20;8.48;;;;;;;;;;5013219;28;20109;-73
2022/03/30 12:32:47;;;;;;;20.63;9.00;;;;;;;;;;5015516;28;20520;-73
2022/03/30 12:35:17;;;;;;;25.85;9.35;;;;;;;;;;5016681;28;20025;-73
2022/03/30 12:37:45;;;;;;;20.08;8.13;;;;;;;;;;5018030;28;20053;-73
2022/03/30 12:40:15;;;;;;;20.15;8.25;;;;;;;;;;5020190;28;20020;-74
2022/03/30 12:42:41;;;;;;;22.67;8.18;;;;;;;;;;5020028;28;20483;-75
2022/03/30 12:45:10;;;;;;;20.90;8.35;;;;;;;;;;5016508;28;20105;-76
2022/03/30 12:47:37;;;;;;;17.55;7.45;;;;;;;;;;5018570;28;20121;-73
2022/03/30 12:50:24;;;;;;;16.83;8.23;;;;;;;;;;5016157;28;20546;-75
2022/03/30 12:52:51;;;;;;;18.42;9.30;;;;;;;;;;5020291;28;20025;-73
2022/03/30 12:55:34;;;;;;;19.25;7.68;;;;;;;;;;4996211;28;20033;-76
2022/03/30 12:58:00;;;;;;;18.58;8.40;;;;;;;;;;5022025;28;20147;-75
2022/03/30 13:00:36;;;;;;;16.85;7.93;;;;;;;;;;5023241;28;20018;-74
2022/03/30 13:03:09;;;;;;;13.52;7.43;;;;;;;;;;5020862;28;20018;-75
2022/03/30 13:05:35;;;;;;;16.98;7.85;;;;;;;;;;5017301;28;21374;-74
2022/03/30 13:08:07;;;;;;;14.57;8.07;;;;;;;;;;5014356;28;20030;-74
2022/03/30 13:10:45;;;;;;;19.75;7.57;;;;;;;;;;5016440;28;20493;-73
2022/03/30 13:13:10;;;;;;;17.65;8.48;;;;;;;;;;5017030;28;20022;-74
2022/03/30 13:15:35;;;;;;;15.38;7.45;;;;;;;;;;5010152;28;20140;-74
2022/03/30 13:18:02;;;;;;;18.77;7.18;;;;;;;;;;5015654;28;20112;-74
2022/03/30 13:20:29;;;;;;;22.08;6.72;;;;;;;;;;5019130;28;20430;-74
2022/03/30 13:22:58;;;;;;;16.40;6.63;;;;;;;;;;5015544;28;20606;-74
2022/03/30 13:25:33;;;;;;;11.38;5.38;;;;;;;;;;5015756;28;20116;-75
2022/03/30 13:27:58;;;;;;;;;;;;;;;;;;5020378;28;20382;-73
2022/03/30 13:30:24;;;;;;;11.10;4.97;;;;;;;;;;5010458;28;20282;-73
2022/03/30 13:32:49;;;;;;;11.35;4.78;;;;;;;;;;5009676;28;20464;-74
2022/03/30 13:35:14;;;;;;;11.18;4.78;;;;;;;;;;5009476;28;20498;-73
2022/03/30 13:37:39;;;;;;;13.48;4.47;;;;;;;;;;5010401;28;20033;-73
2022/03/30 13:40:05;;;;;;;11.27;4.25;;;;;;;;;;5009710;28;20021;-73
2022/03/30 13:42:33;;;;;;;9.65;4.82;;;;;;;;;;5010744;28;20113;-73
2022/03/30 13:44:58;;;;;;;12.60;4.82;;;;;;;;;;5010728;28;20502;-73
2022/03/30 13:47:23;;;;;;;18.35;5.60;;;;;;;;;;5010719;28;20026;-74
2022/03/30 13:49:48;;;;;;;16.35;4.85;;;;;;;;;;5010107;28;20056;-73
2022/03/30 13:52:16;;;;;;;16.02;5.50;;;;;;;;;;5009938;28;20022;-73
2022/03/30 13:54:41;;;;;;;22.05;8.18;;;;;;;;;;5005188;28;20408;-75
2022/03/30 13:57:06;;;;;;;16.17;6.13;;;;;;;;;;5010558;28;20026;-74
2022/03/30 13:59:32;;;;;;;18.85;6.40;;;;;;;;;;5007996;28;20431;-73
2022/03/30 14:01:57;;;;;;;18.83;5.57;;;;;;;;;;5005780;28;20018;-74
2022/03/30 14:04:22;;;;;;;23.40;6.15;;;;;;;;;;5004268;28;20287;-74
2022/03/30 14:06:48;;;;;;;18.17;6.25;;;;;;;;;;5003322;28;20034;-73
2022/03/30 14:09:13;;;;;;;22.05;5.78;;;;;;;;;;5006468;28;20727;-73
2022/03/30 14:11:38;;;;;;;16.95;6.20;;;;;;;;;;5010752;28;20060;-74
2022/03/30 14:14:05;;;;;;;18.60;5.97;;;;;;;;;;5009444;28;20050;-73
2022/03/30 14:16:30;;;;;;;18.17;5.93;;;;;;;;;;5009689;28;20703;-73
2022/03/30 14:18:55;;;;;;;21.35;6.35;;;;;;;;;;5005267;28;20026;-73
2022/03/30 14:21:20;;;;;;;19.77;6.97;;;;;;;;;;5006121;28;20447;-75
2022/03/30 14:23:46;;;;;;;17.92;7.22;;;;;;;;;;5007358;28;20017;-73
2022/03/30 14:26:11;;;;;;;12.88;5.90;;;;;;;;;;5004128;28;20026;-75
2022/03/30 14:28:37;;;;;;;17.50;6.00;;;;;;;;;;5010267;28;20014;-74
2022/03/30 14:31:03;;;;;;;16.88;6.18;;;;;;;;;;5009317;28;21119;-75